createdAt,value
2022-07-25T00:02:19.681Z,21.20
2022-07-25T00:04:47.066Z,21.20
2022-07-25T00:07:14.125Z,21.10
2022-07-25T00:09:40.884Z,21.10
2022-07-25T00:12:08.129Z,21.10
2022-07-25T00:14:37.877Z,21.10
2022-07-25T00:17:04.618Z,21.10
2022-07-25T00:19:31.290Z,21.10
2022-07-25T00:21:58.661Z,21.00
2022-07-25T00:24:25.446Z,21.00
2022-07-25T00:26:52.287Z,20.90
2022-07-25T00:29:19.007Z,20.90
2022-07-25T00:31:45.828Z,20.80
2022-07-25T00:34:13.120Z,20.90
2022-07-25T00:36:39.909Z,20.80
2022-07-25T00:39:06.771Z,20.80
2022-07-25T00:41:33.476Z,20.80
2022-07-25T00:44:00.154Z,20.70
2022-07-25T00:46:26.880Z,20.70
2022-07-25T00:48:54.424Z,20.70
2022-07-25T00:51:21.521Z,20.60
2022-07-25T00:53:48.549Z,20.70
2022-07-25T00:56:16.867Z,20.60
2022-07-25T00:58:45.500Z,20.60
2022-07-25T01:01:12.261Z,20.60
2022-07-25T01:03:39.452Z,20.50
2022-07-25T01:06:06.694Z,20.50
2022-07-25T01:08:33.552Z,20.50
2022-07-25T01:11:00.304Z,20.50
2022-07-25T01:13:27.317Z,20.50
2022-07-25T01:15:54.154Z,20.50
2022-07-25T01:18:20.938Z,20.50
2022-07-25T01:20:47.830Z,20.50
2022-07-25T01:23:14.514Z,20.50
2022-07-25T01:25:41.294Z,20.50
2022-07-25T01:28:08.109Z,20.60
2022-07-25T01:30:35.040Z,20.60
2022-07-25T01:33:06.702Z,20.60
2022-07-25T01:35:34.154Z,20.60
2022-07-25T01:38:00.959Z,20.50
2022-07-25T01:40:27.822Z,20.50
2022-07-25T01:45:21.756Z,20.40
2022-07-25T01:47:48.523Z,20.30
2022-07-25T01:50:15.380Z,20.30
2022-07-25T01:52:42.683Z,20.20
2022-07-25T01:55:09.751Z,20.20
2022-07-25T01:57:39.150Z,20.20
2022-07-25T02:00:09.710Z,20.10
2022-07-25T02:02:36.555Z,20.10
2022-07-25T02:07:30.731Z,20.00
2022-07-25T02:14:51.834Z,20.00
2022-07-25T02:19:45.987Z,19.90
2022-07-25T02:22:12.963Z,19.90
2022-07-25T02:27:07.997Z,19.90
2022-07-25T02:34:28.990Z,19.80
2022-07-25T02:39:22.888Z,19.80
2022-07-25T02:41:49.684Z,19.80
2022-07-25T02:44:16.547Z,19.70
2022-07-25T02:49:12.026Z,19.60
2022-07-25T02:51:38.778Z,19.60
2022-07-25T02:54:05.550Z,19.60
2022-07-25T02:59:15.258Z,19.60
2022-07-25T03:01:42.094Z,19.50
2022-07-25T03:04:09.349Z,19.50
2022-07-25T03:09:04.700Z,19.50
2022-07-25T03:11:31.396Z,19.40
2022-07-25T03:13:58.135Z,19.40
2022-07-25T03:18:52.258Z,19.40
2022-07-25T03:23:51.955Z,19.40
2022-07-25T03:26:19.665Z,19.40
2022-07-25T03:33:40.692Z,19.30
2022-07-25T03:36:07.708Z,19.30
2022-07-25T03:38:34.502Z,19.30
2022-07-25T03:43:28.533Z,19.30
2022-07-25T03:48:22.511Z,19.30
2022-07-25T03:50:49.220Z,19.40
2022-07-25T03:55:43.148Z,19.50
2022-07-25T03:58:09.873Z,19.50
2022-07-25T04:05:31.032Z,19.60
2022-07-25T04:10:24.974Z,19.70
2022-07-25T04:15:18.807Z,19.70
2022-07-25T04:20:13.343Z,19.80
2022-07-25T04:25:13.490Z,19.80
2022-07-25T04:27:43.418Z,19.80
2022-07-25T04:30:11.144Z,19.90
2022-07-25T04:32:37.969Z,19.90
2022-07-25T04:35:05.090Z,20.00
2022-07-25T04:37:31.896Z,20.10
2022-07-25T04:42:25.715Z,20.30
2022-07-25T04:47:19.556Z,20.50
2022-07-25T04:49:46.369Z,20.70
2022-07-25T04:52:13.134Z,20.90
2022-07-25T04:54:39.871Z,21.00
2022-07-25T04:59:33.720Z,21.40
2022-07-25T05:02:01.165Z,21.60
2022-07-25T05:04:28.727Z,21.80
2022-07-25T05:06:55.485Z,21.90
2022-07-25T05:09:22.362Z,22.10
2022-07-25T05:16:50.531Z,22.50
2022-07-25T05:19:17.311Z,22.60
2022-07-25T05:21:44.021Z,22.70
2022-07-25T05:24:10.768Z,22.80
2022-07-25T05:26:37.509Z,22.90
2022-07-25T05:31:31.485Z,23.10
2022-07-25T05:33:58.346Z,23.10
2022-07-25T05:36:26.095Z,23.20
2022-07-25T05:38:52.978Z,23.30
2022-07-25T05:41:20.145Z,23.40
2022-07-25T05:43:48.733Z,23.40
2022-07-25T05:46:15.711Z,23.70
2022-07-25T05:48:43.495Z,24.10
2022-07-25T05:51:11.279Z,24.30
2022-07-25T05:53:38.102Z,24.50
2022-07-25T05:56:05.435Z,24.50
2022-07-25T05:58:32.128Z,24.90
2022-07-25T06:00:58.993Z,25.50
2022-07-25T06:03:25.861Z,26.00
2022-07-25T06:05:52.638Z,26.50
2022-07-25T06:08:19.339Z,26.60
2022-07-25T06:10:49.265Z,26.30
2022-07-25T06:13:16.000Z,25.80
2022-07-25T06:15:42.740Z,25.60
2022-07-25T06:18:09.441Z,25.50
2022-07-25T06:20:36.143Z,25.70
2022-07-25T06:23:04.802Z,26.30
2022-07-25T06:25:31.536Z,27.00
2022-07-25T06:27:58.433Z,28.00
2022-07-25T06:30:25.285Z,28.90
2022-07-25T06:32:52.102Z,29.80
2022-07-25T06:35:19.394Z,30.00
2022-07-25T06:37:46.532Z,30.20
2022-07-25T06:40:13.424Z,30.70
2022-07-25T06:42:42.184Z,31.30
2022-07-25T06:45:10.735Z,31.80
2022-07-25T06:47:38.660Z,31.60
2022-07-25T06:50:07.412Z,31.50
2022-07-25T06:52:34.757Z,31.60
2022-07-25T06:55:02.665Z,31.50
2022-07-25T06:57:29.518Z,31.30
2022-07-25T06:59:56.230Z,30.70
2022-07-25T07:02:23.024Z,30.10
2022-07-25T07:04:49.938Z,29.30
2022-07-25T07:07:17.231Z,28.80
2022-07-25T07:09:44.530Z,28.50
2022-07-25T07:12:11.338Z,28.30
2022-07-25T07:17:05.898Z,28.30
2022-07-25T07:19:32.626Z,28.30
2022-07-25T07:24:30.664Z,28.30
2022-07-25T07:26:58.306Z,28.40
2022-07-25T07:29:25.034Z,28.40
2022-07-25T07:31:51.848Z,28.60
2022-07-25T07:34:18.815Z,28.70
2022-07-25T07:36:45.646Z,29.20
2022-07-25T07:39:12.510Z,29.50
2022-07-25T07:41:39.277Z,29.70
2022-07-25T07:44:06.184Z,29.80
2022-07-25T07:46:33.091Z,29.80
2022-07-25T07:49:00.001Z,30.00
2022-07-25T07:51:28.078Z,30.30
2022-07-25T07:54:13.463Z,30.60
2022-07-25T07:56:40.250Z,30.70
2022-07-25T07:59:07.425Z,30.80
2022-07-25T08:01:35.148Z,30.80
2022-07-25T08:04:02.018Z,30.80
2022-07-25T08:06:29.020Z,30.90
2022-07-25T08:08:55.761Z,30.90
2022-07-25T08:11:22.508Z,31.00
2022-07-25T08:13:49.292Z,31.00
2022-07-25T08:16:16.114Z,31.10
2022-07-25T08:18:42.997Z,31.20
2022-07-25T08:21:10.282Z,31.20
2022-07-25T08:23:38.967Z,31.30
2022-07-25T08:26:06.480Z,31.30
2022-07-25T08:28:33.209Z,31.20
2022-07-25T08:31:00.321Z,31.10
2022-07-25T08:33:27.291Z,31.00
2022-07-25T08:35:55.973Z,30.90
2022-07-25T08:38:24.377Z,30.80
2022-07-25T08:40:51.592Z,30.60
2022-07-25T08:43:19.421Z,30.30
2022-07-25T08:45:51.787Z,30.30
2022-07-25T08:48:21.605Z,30.20
2022-07-25T08:50:49.546Z,30.10
2022-07-25T08:53:35.318Z,30.00
2022-07-25T08:56:12.185Z,29.90
2022-07-25T08:58:40.767Z,29.90
2022-07-25T09:01:08.113Z,29.90
2022-07-25T09:03:36.240Z,30.00
2022-07-25T09:06:17.323Z,29.90
2022-07-25T09:08:59.639Z,29.80
2022-07-25T09:11:32.395Z,29.70
2022-07-25T09:14:06.827Z,29.70
2022-07-25T09:16:36.866Z,29.60
2022-07-25T09:19:13.651Z,29.60
2022-07-25T09:21:42.815Z,29.70
2022-07-25T09:24:15.866Z,29.90
2022-07-25T09:26:52.473Z,30.20
2022-07-25T09:29:20.875Z,30.60
2022-07-25T09:31:48.305Z,30.90
2022-07-25T09:34:30.840Z,31.10
2022-07-25T09:36:58.346Z,31.30
2022-07-25T09:39:50.266Z,31.40
2022-07-25T09:42:36.270Z,31.70
2022-07-25T09:45:12.360Z,31.90
2022-07-25T09:47:57.538Z,31.60
2022-07-25T09:50:25.725Z,31.80
2022-07-25T09:52:54.722Z,31.70
2022-07-25T09:55:22.558Z,31.40
2022-07-25T09:57:52.422Z,31.00
2022-07-25T10:00:28.391Z,30.90
2022-07-25T10:02:55.110Z,30.60
2022-07-25T10:05:30.649Z,30.30
2022-07-25T10:07:58.360Z,29.90
2022-07-25T10:10:31.340Z,29.50
2022-07-25T10:13:11.183Z,29.20
2022-07-25T10:15:51.881Z,29.00
2022-07-25T10:18:24.571Z,28.50
2022-07-25T10:20:55.252Z,28.10
2022-07-25T10:23:23.992Z,27.70
2022-07-25T10:26:04.705Z,27.40
2022-07-25T10:28:47.640Z,27.00
2022-07-25T10:31:18.646Z,26.70
2022-07-25T10:33:50.709Z,26.50
2022-07-25T10:36:18.579Z,26.30
2022-07-25T10:38:46.383Z,26.20
2022-07-25T10:41:15.397Z,26.30
2022-07-25T10:43:48.509Z,26.70
2022-07-25T10:46:19.393Z,26.90
2022-07-25T10:49:02.450Z,27.40
2022-07-25T10:51:32.867Z,27.80
2022-07-25T10:53:59.651Z,27.80
2022-07-25T10:56:28.768Z,27.70
2022-07-25T10:58:55.488Z,27.40
2022-07-25T11:01:25.902Z,27.50
2022-07-25T11:03:55.192Z,27.70
2022-07-25T11:06:39.061Z,27.90
2022-07-25T11:09:27.218Z,28.00
2022-07-25T11:11:57.207Z,27.80
2022-07-25T11:14:40.912Z,27.80
2022-07-25T11:17:22.401Z,27.90
2022-07-25T11:19:57.998Z,28.10
2022-07-25T11:22:29.182Z,28.20
2022-07-25T11:24:57.676Z,28.40
2022-07-25T11:27:25.707Z,28.50
2022-07-25T11:29:53.279Z,28.40
2022-07-25T11:32:20.686Z,28.50
2022-07-25T11:34:49.752Z,28.50
2022-07-25T11:37:18.875Z,28.60
2022-07-25T11:39:47.197Z,28.80
2022-07-25T11:42:16.776Z,28.70
2022-07-25T11:44:51.578Z,28.60
2022-07-25T11:47:28.892Z,28.40
2022-07-25T11:49:58.003Z,28.50
2022-07-25T11:52:33.914Z,28.60
2022-07-25T11:55:08.873Z,28.60
2022-07-25T11:57:38.559Z,28.70
2022-07-25T12:00:18.358Z,29.00
2022-07-25T12:02:46.029Z,29.20
2022-07-25T12:05:16.012Z,29.40
2022-07-25T12:07:46.947Z,29.60
2022-07-25T12:10:16.902Z,29.40
2022-07-25T12:12:48.652Z,29.30
2022-07-25T12:15:18.264Z,29.30
2022-07-25T12:17:45.201Z,29.10
2022-07-25T12:20:26.856Z,28.90
2022-07-25T12:22:56.705Z,28.70
2022-07-25T12:25:28.889Z,28.70
2022-07-25T12:27:59.121Z,28.90
2022-07-25T12:30:30.572Z,28.90
2022-07-25T12:32:58.500Z,28.90
2022-07-25T12:35:25.927Z,28.60
2022-07-25T12:37:53.210Z,28.70
2022-07-25T12:40:20.695Z,28.60
2022-07-25T12:42:49.189Z,28.90
2022-07-25T12:45:17.718Z,29.20
2022-07-25T12:47:45.926Z,29.50
2022-07-25T12:50:13.948Z,29.70
2022-07-25T12:52:41.348Z,29.50
2022-07-25T12:55:10.456Z,29.60
2022-07-25T12:57:37.858Z,29.90
2022-07-25T13:00:11.413Z,30.30
2022-07-25T13:02:38.436Z,30.60
2022-07-25T13:05:05.790Z,30.40
2022-07-25T13:07:33.390Z,30.20
2022-07-25T13:10:00.746Z,30.00
2022-07-25T13:12:27.651Z,30.10
2022-07-25T13:14:54.364Z,29.90
2022-07-25T13:17:26.555Z,29.70
2022-07-25T13:19:54.461Z,29.80
2022-07-25T13:22:30.815Z,29.80
2022-07-25T13:24:57.530Z,29.70
2022-07-25T13:27:24.509Z,29.70
2022-07-25T13:29:54.795Z,29.70
2022-07-25T13:32:23.748Z,29.90
2022-07-25T13:34:50.974Z,29.60
2022-07-25T13:37:17.733Z,29.60
2022-07-25T13:39:44.461Z,30.10
2022-07-25T13:42:11.238Z,29.40
2022-07-25T13:44:38.033Z,29.40
2022-07-25T13:47:04.971Z,29.50
2022-07-25T13:49:32.291Z,29.60
2022-07-25T13:51:59.185Z,29.60
2022-07-25T13:54:25.996Z,29.50
2022-07-25T13:56:52.802Z,29.60
2022-07-25T13:59:21.680Z,29.80
2022-07-25T14:01:53.829Z,29.50
2022-07-25T14:04:20.595Z,29.40
2022-07-25T14:06:51.811Z,29.30
2022-07-25T14:09:22.499Z,29.30
2022-07-25T14:11:49.482Z,29.20
2022-07-25T14:14:16.487Z,29.20
2022-07-25T14:16:43.384Z,29.30
2022-07-25T14:19:10.681Z,29.40
2022-07-25T14:21:37.939Z,29.10
2022-07-25T14:24:05.315Z,29.40
2022-07-25T14:26:33.404Z,29.20
2022-07-25T14:29:00.366Z,28.80
2022-07-25T14:31:27.653Z,28.80
2022-07-25T14:33:54.441Z,28.60
2022-07-25T14:36:21.214Z,28.50
2022-07-25T14:38:48.339Z,28.60
2022-07-25T14:41:15.544Z,28.60
2022-07-25T14:43:42.952Z,25.60
2022-07-25T14:46:10.078Z,28.50
2022-07-25T14:48:37.946Z,28.50
2022-07-25T14:51:05.952Z,28.50
2022-07-25T14:53:33.669Z,28.60
2022-07-25T14:56:00.931Z,28.10
2022-07-25T14:58:28.843Z,28.10
2022-07-25T15:00:55.589Z,27.90
2022-07-25T15:03:22.538Z,27.70
2022-07-25T15:05:49.367Z,27.70
2022-07-25T15:08:16.155Z,27.60
2022-07-25T15:10:42.951Z,27.50
2022-07-25T15:15:57.183Z,27.10
2022-07-25T15:18:23.938Z,27.20
2022-07-25T15:20:51.840Z,27.20
2022-07-25T15:23:18.774Z,27.20
2022-07-25T15:26:03.925Z,27.10
2022-07-25T15:28:33.553Z,26.90
2022-07-25T15:31:00.463Z,26.80
2022-07-25T15:33:27.489Z,26.80
2022-07-25T15:35:54.801Z,26.80
2022-07-25T15:38:21.795Z,26.70
2022-07-25T15:40:48.728Z,26.70
2022-07-25T15:43:15.574Z,26.70
2022-07-25T15:45:44.304Z,26.80
2022-07-25T15:48:12.560Z,26.60
2022-07-25T15:50:42.852Z,26.40
2022-07-25T15:53:10.541Z,26.50
2022-07-25T15:55:38.480Z,26.50
2022-07-25T15:58:06.021Z,26.30
2022-07-25T16:00:33.700Z,26.10
2022-07-25T16:03:00.522Z,25.90
2022-07-25T16:05:27.893Z,25.80
2022-07-25T16:07:54.680Z,25.70
2022-07-25T16:10:21.472Z,25.60
2022-07-25T16:12:48.550Z,25.60
2022-07-25T16:15:16.070Z,25.60
2022-07-25T16:17:42.847Z,25.40
2022-07-25T16:20:10.290Z,25.40
2022-07-25T16:22:37.608Z,25.40
2022-07-25T16:25:04.916Z,25.30
2022-07-25T16:27:31.786Z,25.40
2022-07-25T16:29:58.677Z,25.60
2022-07-25T16:32:25.556Z,25.70
2022-07-25T16:34:52.543Z,24.60
2022-07-25T16:37:20.590Z,26.10
2022-07-25T16:39:47.381Z,26.30
2022-07-25T16:42:14.521Z,26.50
2022-07-25T16:44:41.244Z,26.70
2022-07-25T16:47:08.563Z,26.90
2022-07-25T16:49:35.321Z,26.90
2022-07-25T16:52:02.342Z,27.00
2022-07-25T16:54:29.498Z,26.80
2022-07-25T16:56:59.610Z,26.70
2022-07-25T16:59:26.842Z,26.50
2022-07-25T17:01:53.705Z,26.40
2022-07-25T17:04:20.510Z,26.40
2022-07-25T17:06:47.527Z,26.30
2022-07-25T17:09:14.265Z,26.10
2022-07-25T17:11:41.196Z,25.90
2022-07-25T17:14:07.979Z,25.70
2022-07-25T17:16:34.921Z,25.60
2022-07-25T17:19:02.615Z,25.40
2022-07-25T17:21:29.384Z,25.20
2022-07-25T17:23:56.532Z,25.00
2022-07-25T17:26:23.617Z,24.90
2022-07-25T17:28:50.539Z,24.90
2022-07-25T17:31:18.152Z,24.90
2022-07-25T17:33:44.903Z,24.90
2022-07-25T17:36:11.924Z,24.90
2022-07-25T17:38:38.749Z,24.90
2022-07-25T17:41:05.745Z,24.90
2022-07-25T17:43:32.701Z,24.90
2022-07-25T17:45:59.827Z,24.90
2022-07-25T17:48:26.619Z,24.90
2022-07-25T17:50:53.407Z,24.90
2022-07-25T17:53:20.132Z,24.80
2022-07-25T17:55:46.877Z,24.80
2022-07-25T17:58:13.750Z,24.70
2022-07-25T18:00:40.525Z,24.60
2022-07-25T18:03:07.481Z,24.60
2022-07-25T18:05:34.824Z,24.60
2022-07-25T18:08:02.956Z,24.50
2022-07-25T18:10:30.113Z,24.70
2022-07-25T18:12:56.996Z,24.70
2022-07-25T18:15:23.856Z,24.70
2022-07-25T18:17:50.666Z,24.80
2022-07-25T18:20:17.853Z,24.70
2022-07-25T18:22:45.301Z,24.60
2022-07-25T18:25:13.244Z,24.60
2022-07-25T18:27:44.639Z,24.60
2022-07-25T18:30:11.879Z,24.60
2022-07-25T18:32:39.286Z,24.40
2022-07-25T18:35:07.771Z,24.50
2022-07-25T18:37:35.413Z,24.40
2022-07-25T18:40:02.147Z,24.30
2022-07-25T18:42:30.055Z,24.30
2022-07-25T18:44:57.432Z,24.20
2022-07-25T18:47:26.486Z,24.20
2022-07-25T18:49:59.361Z,24.20
2022-07-25T18:52:26.205Z,24.10
2022-07-25T18:54:52.974Z,24.20
2022-07-25T18:57:19.719Z,24.10
2022-07-25T18:59:46.424Z,24.00
2022-07-25T19:02:13.329Z,24.00
2022-07-25T19:04:40.090Z,23.80
2022-07-25T19:07:08.181Z,23.70
2022-07-25T19:09:35.069Z,23.60
2022-07-25T19:12:01.850Z,23.50
2022-07-25T19:14:30.448Z,23.30
2022-07-25T19:16:58.895Z,23.30
2022-07-25T19:19:26.855Z,23.20
2022-07-25T19:21:54.047Z,23.20
2022-07-25T19:24:21.008Z,23.20
2022-07-25T19:26:48.051Z,23.10
2022-07-25T19:29:16.430Z,23.00
2022-07-25T19:31:43.901Z,22.90
2022-07-25T19:34:11.142Z,22.90
2022-07-25T19:36:38.501Z,22.80
2022-07-25T19:39:06.186Z,22.70
2022-07-25T19:41:33.308Z,22.70
2022-07-25T19:44:00.145Z,22.70
2022-07-25T19:46:31.030Z,22.60
2022-07-25T19:48:58.284Z,22.60
2022-07-25T19:51:25.418Z,22.60
2022-07-25T19:53:52.409Z,22.50
2022-07-25T19:56:19.420Z,22.50
2022-07-25T19:58:46.706Z,22.40
2022-07-25T20:01:13.595Z,22.30
2022-07-25T20:03:41.187Z,22.30
2022-07-25T20:06:08.848Z,22.20
2022-07-25T20:08:36.961Z,22.20
2022-07-25T20:11:03.825Z,22.20
2022-07-25T20:13:30.589Z,22.10
2022-07-25T20:15:58.726Z,22.10
2022-07-25T20:18:25.678Z,22.10
2022-07-25T20:20:52.789Z,22.00
2022-07-25T20:23:19.660Z,22.00
2022-07-25T20:25:46.429Z,21.90
2022-07-25T20:28:13.174Z,21.80
2022-07-25T20:30:40.409Z,21.80
2022-07-25T20:33:09.164Z,21.80
2022-07-25T20:35:37.927Z,21.70
2022-07-25T20:38:10.121Z,21.70
2022-07-25T20:40:42.689Z,21.70
2022-07-25T20:43:11.896Z,21.60
2022-07-25T20:45:38.721Z,21.60
2022-07-25T20:48:05.914Z,21.50
2022-07-25T20:50:32.843Z,21.40
2022-07-25T20:52:59.602Z,21.50
2022-07-25T20:55:28.372Z,21.40
2022-07-25T20:57:55.298Z,21.40
2022-07-25T21:00:22.887Z,21.40
2022-07-25T21:02:49.715Z,21.30
2022-07-25T21:05:16.553Z,21.30
2022-07-25T21:07:43.328Z,21.20
2022-07-25T21:10:11.021Z,21.10
2022-07-25T21:12:38.603Z,21.10
2022-07-25T21:15:06.918Z,21.10
2022-07-25T21:17:34.520Z,21.20
2022-07-25T21:20:01.566Z,21.10
2022-07-25T21:22:28.350Z,21.10
2022-07-25T21:24:55.365Z,21.10
2022-07-25T21:27:22.800Z,21.00
2022-07-25T21:29:49.557Z,21.00
2022-07-25T21:32:17.301Z,20.90
2022-07-25T21:34:45.607Z,20.90
2022-07-25T21:37:13.781Z,20.80
2022-07-25T21:39:40.592Z,20.80
2022-07-25T21:42:09.848Z,20.80
2022-07-25T21:44:41.469Z,20.70
2022-07-25T21:47:09.000Z,20.70
2022-07-25T21:49:54.457Z,20.70
2022-07-25T21:52:29.954Z,20.70
2022-07-25T21:55:02.137Z,20.80
2022-07-25T21:57:28.835Z,20.80
2022-07-25T21:59:55.656Z,21.00
2022-07-25T22:02:23.390Z,21.10
2022-07-25T22:04:50.264Z,21.10
2022-07-25T22:07:17.148Z,21.10
2022-07-25T22:09:44.021Z,21.10
2022-07-25T22:12:10.825Z,21.20
2022-07-25T22:14:38.087Z,21.20
2022-07-25T22:17:05.656Z,21.20
2022-07-25T22:19:32.703Z,21.20
2022-07-25T22:21:59.560Z,21.20
2022-07-25T22:24:26.361Z,21.20
2022-07-25T22:26:53.408Z,21.30
2022-07-25T22:29:20.850Z,21.20
2022-07-25T22:31:47.697Z,21.20
2022-07-25T22:34:14.459Z,21.20
2022-07-25T22:36:41.218Z,21.20
2022-07-25T22:39:08.442Z,21.20
2022-07-25T22:41:35.567Z,21.20
2022-07-25T22:44:02.518Z,21.20
2022-07-25T22:46:30.557Z,21.20
2022-07-25T22:48:58.130Z,21.20
2022-07-25T22:51:25.181Z,21.20
2022-07-25T22:53:52.116Z,21.20
2022-07-25T22:56:19.416Z,21.20
2022-07-25T22:58:48.936Z,21.10
2022-07-25T23:01:17.478Z,21.10
2022-07-25T23:03:44.365Z,21.10
2022-07-25T23:06:11.300Z,21.00
2022-07-25T23:08:38.034Z,21.00
2022-07-25T23:11:06.188Z,20.90
2022-07-25T23:13:34.134Z,20.70
2022-07-25T23:16:03.294Z,20.70
2022-07-25T23:18:30.710Z,20.60
2022-07-25T23:20:57.734Z,20.50
2022-07-25T23:23:24.650Z,20.40
2022-07-25T23:25:51.579Z,20.40
2022-07-25T23:28:18.324Z,20.30
2022-07-25T23:30:45.036Z,20.20
2022-07-25T23:33:12.012Z,20.20
2022-07-25T23:35:38.863Z,20.10
2022-07-25T23:38:05.669Z,20.20
2022-07-25T23:40:32.446Z,20.10
2022-07-25T23:42:59.389Z,20.00
2022-07-25T23:45:28.050Z,20.00
2022-07-25T23:47:56.251Z,20.10
2022-07-25T23:50:23.823Z,20.10
2022-07-25T23:52:50.976Z,20.10
2022-07-25T23:55:17.764Z,20.10
2022-07-25T23:57:44.622Z,20.10
